x

Ilm2 - 5 Miles Se Of Wrightsville Beach, Nc (41038) Weather Station

7:08pm - Sun 5th Jul 2015 All times are EDT. -4 hours from GMT.

  • Wind
    18mph, 22mph gusts
  • Sea Temp 79°f
  • Air Temp 80°f
  • Sea Pressure 1018.8mb
  • Ilm2 - 5 Miles Se Of Wrightsville Beach, Nc
  • Ilm2 - 5 Miles Se Of Wrightsville Beach, Nc

More Historic Weather Station data

Upgrade to MSW Pro to gain access to the past 30 days of data for over 8000 Wavebouys and Weather Stations around the globe.

Join Pro

Comparision Forecast

View Surf forecast
   
Sun 07/05 7:08pm 18 22 mph 1018.8mb 79f 80f
6:53pm 18 25 mph 1018.9mb 79f 81f
6:38pm 16 22 mph 1018.8mb 79f 81f
6:23pm 18 22 mph 1018.6mb 79f 81f
6:08pm 16 20 mph 1018.8mb 79f 81f
5:53pm 16 20 mph 1018.9mb 79f 81f
5:38pm 13 18 mph 1019mb 80f 80f
5:23pm 13 18 mph 1019.1mb 80f 80f
5:08pm 13 18 mph 1019.1mb 80f 80f
3:08pm 16 20 mph 1020.5mb 80f 80f
2:53pm 16 20 mph 1020.5mb 79f 80f
2:38pm 16 20 mph 1020.4mb 79f 80f
2:23pm 16 20 mph 1020.6mb 79f 80f
2:08pm 16 18 mph 1020.8mb 79f 80f
1:53pm 16 20 mph 1020.7mb 79f 80f
1:38pm 13 18 mph 1020.7mb 79f 80f
1:23pm 13 18 mph 1020.7mb 79f 80f
1:08pm 13 18 mph 1020.7mb 79f 80f
12:53pm 11 16 mph 1020.8mb 79f 80f
12:38pm 13 16 mph 1020.8mb 79f 80f
12:23pm 11 16 mph 1020.9mb 79f 80f
12:08pm 13 16 mph 1020.9mb 79f 80f
11:53am 11 16 mph 1021mb 79f 80f
11:38am 7 9 mph 1021.1mb 79f 80f
11:23am 7 9 mph 1021mb 79f 80f
11:08am 7 9 mph 1021mb 79f 79f
10:53am 7 9 mph 1020.9mb 79f 79f
10:38am 7 11 mph 1021mb 78f 79f
10:23am 9 11 mph 1021.2mb 78f 79f
10:08am 7 11 mph 1021.2mb 78f 79f
9:53am 7 11 mph 1021.1mb 78f 78f
9:38am 7 9 mph 1021.2mb 78f 78f
9:23am 4 7 mph 1021.3mb 78f 78f
9:08am 7 9 mph 1021.3mb 78f 78f
8:53am 7 9 mph 1021.4mb 78f 78f
8:38am 7 9 mph 1021.4mb 78f 78f
8:23am 7 9 mph 1021.1mb 78f 78f
8:08am 9 11 mph 1021.1mb 78f 78f
7:53am 9 11 mph 1021mb 78f 78f
7:38am 9 11 mph 1020.8mb 78f 78f
7:23am 7 11 mph 1020.7mb 78f 78f
7:08am 9 13 mph 1020.7mb 78f 78f
6:53am 9 13 mph 1020.5mb 78f 78f
6:38am 9 11 mph 1020.4mb 78f 78f
6:23am 7 11 mph 1020.3mb 78f 78f
6:08am 7 9 mph 1020mb 78f 78f
5:53am 7 11 mph 1019.9mb 78f 78f
5:38am 7 9 mph 1019.7mb 78f 78f
5:23am 7 9 mph 1019.4mb 78f 78f
5:08am 7 11 mph 1019.3mb 78f 78f
4:53am 7 11 mph 1019.3mb 78f 78f
4:38am 9 11 mph 1019mb 78f 79f
4:23am 9 11 mph 1018.9mb 78f 79f
4:08am 11 13 mph 1018.8mb 78f 79f
3:53am 11 13 mph 1018.8mb 78f 79f
3:38am 11 16 mph 1018.9mb 78f 79f
3:23am 11 16 mph 1018.7mb 78f 79f
3:08am 13 18 mph 1018.4mb 78f 80f
2:53am 13 16 mph 1018.4mb 78f 80f
2:38am 11 13 mph 1018.4mb 78f 80f
2:23am 11 16 mph 1018.4mb 78f 80f
2:08am 11 16 mph 1018.4mb 78f 80f
1:38am 13 18 mph 1018.4mb 78f 80f
1:23am 13 16 mph 1018.1mb 78f 79f
1:08am 13 18 mph 1018.3mb 78f 79f
12:53am 13 18 mph 1018.2mb 78f 79f
12:38am 13 20 mph 1018.2mb 78f 79f
12:23am 16 20 mph 1018mb 78f 80f
12:08am 16 20 mph 1018mb 78f 80f
Sat 07/04 11:08pm 18 22 mph 1018.1mb 78f 80f
10:53pm 18 22 mph 1018.2mb 78f 80f
10:38pm 16 20 mph 1017.8mb 78f 80f
10:23pm 18 22 mph 1017.8mb 78f 80f
10:08pm 18 22 mph 1017.8mb 78f 80f
9:53pm 18 25 mph 1017.7mb 78f 80f
9:38pm 18 22 mph 1017.4mb 78f 80f
9:23pm 16 22 mph 1017.4mb 78f 80f
9:08pm 18 25 mph 1017.4mb 78f 80f
8:53pm 18 22 mph 1017.3mb 78f 80f
8:38pm 20 25 mph 1017mb 78f 80f
8:23pm 18 22 mph 1016.6mb 79f 80f
8:08pm 20 25 mph 1016.5mb 79f 80f
7:53pm 18 25 mph 1016.5mb 79f 80f
7:38pm 18 22 mph 1016.7mb 79f 80f
7:23pm 16 22 mph 1016.6mb 79f 80f
7:08pm 16 20 mph 1016.6mb 79f 80f
6:53pm 16 20 mph 1016.8mb 79f 80f
6:38pm 16 20 mph 1016.7mb 79f 81f
6:23pm 16 20 mph 1016.8mb 79f 81f
6:08pm 16 22 mph 1016.8mb 79f 81f
5:53pm 18 25 mph 1016.7mb 79f 81f
5:38pm 18 25 mph 1016.6mb 79f 81f
5:23pm 20 25 mph 1016.4mb 79f 80f
5:08pm 20 27 mph 1016.5mb 79f 80f
4:53pm 20 25 mph 1016.4mb 79f 80f
4:38pm 20 27 mph 1016.5mb 79f 80f
4:23pm 20 25 mph 1016.5mb 79f 80f
4:08pm 18 22 mph 1016.7mb 79f 80f
3:53pm 18 22 mph 1016.9mb 79f 80f
3:38pm 18 25 mph 1016.9mb 79f 80f
3:23pm 20 25 mph 1016.9mb 79f 80f
3:08pm 20 25 mph 1017mb 79f 80f
2:53pm 20 25 mph 1017mb 79f 80f
2:38pm 20 25 mph 1017mb 79f 80f
2:23pm 20 27 mph 1017mb 79f 80f
2:08pm 20 27 mph 1017mb 79f 80f
1:53pm 22 29 mph 1017.1mb 78f 80f
1:38pm 20 27 mph 1016.9mb 78f 80f
1:23pm 18 25 mph 1017.1mb 78f 80f
1:08pm 18 25 mph 1017mb 78f 80f
12:53pm 18 22 mph 1017mb 78f 80f
12:38pm 18 25 mph 1016.9mb 78f 80f
12:23pm 18 25 mph 1016.9mb 78f 80f
12:08pm 18 22 mph 1017mb 78f 80f
11:53am 13 20 mph 1017.2mb 78f 82f
11:38am 13 20 mph 1017mb 78f 82f
11:23am 11 16 mph 1016.9mb 78f 82f
11:08am 13 18 mph 1016.8mb 78f 82f
10:53am 13 18 mph 1016.5mb 78f 82f
10:38am 16 22 mph 1016.5mb 78f 82f
10:23am 16 22 mph 1016.5mb 78f 81f
10:08am 20 27 mph 1016.7mb 78f 81f
9:53am 20 27 mph 1016.6mb 78f 81f
9:38am 20 25 mph 1016.8mb 78f 80f
9:23am 22 29 mph 1016.7mb 78f 81f
9:08am 18 25 mph 1016.5mb 78f 80f
8:53am 20 29 mph 1016.3mb 78f 80f
7:53am 20 25 mph 1016mb 78f 80f
7:08am 18 22 mph 1015.9mb 78f 80f
6:53am 16 22 mph 1015.8mb 78f 79f
6:38am 20 25 mph 1015.5mb 78f 80f
6:23am 20 25 mph 1015.3mb 78f 80f
6:08am 20 27 mph 1015.4mb 78f 80f
5:53am 20 27 mph 1014.9mb 78f 80f
5:38am 22 27 mph 1014.7mb 78f 80f
5:23am 25 34 mph 1014.6mb 78f 80f
5:08am 25 31 mph 1014.1mb 78f 80f
4:53am 22 31 mph 1014.2mb 78f 80f
4:38am 22 31 mph 1014mb 78f 80f
4:23am 20 27 mph 1014.1mb 78f 80f
4:08am 22 27 mph 1014mb 78f 80f
3:53am 20 27 mph 1014.1mb 78f 80f
3:38am 20 29 mph 1014.2mb 78f 80f
3:23am 22 29 mph 1014mb 78f 80f
3:08am 20 27 mph 1014mb 78f 80f
2:53am 20 27 mph 1014.3mb 78f 80f
2:38am 22 29 mph 1014.4mb 78f 80f
2:23am 25 31 mph 1014.3mb 78f 80f
2:08am 20 27 mph 1014.3mb 78f 80f
1:53am 18 25 mph 1014.5mb 78f 80f
1:38am 20 27 mph 1014.5mb 78f 80f
1:23am 20 27 mph 1014.4mb 78f 80f
1:08am 22 29 mph 1014.5mb 78f 80f
12:53am 22 31 mph 1014.6mb 78f 80f
12:38am 20 29 mph 1014.5mb 78f 80f
12:23am 22 29 mph 1014.3mb 78f 80f
12:08am 22 29 mph 1014.5mb 78f 80f
Fri 07/03 11:53pm 22 29 mph 1014.3mb 78f 79f
11:38pm 25 31 mph 1014.1mb 78f 79f
11:23pm 25 31 mph 1013.9mb 78f 79f
11:08pm 25 29 mph 1014.2mb 78f 78f
10:53pm 22 29 mph 1013.7mb 78f 79f
10:38pm 20 27 mph 1013.7mb 79f 78f
10:23pm 20 25 mph 1013.8mb 79f 78f
10:08pm 20 27 mph 1013.4mb 79f 78f
9:53pm 22 27 mph 1013.1mb 79f 78f
9:38pm 22 29 mph 1012.8mb 79f 78f
9:23pm 20 29 mph 1012.7mb 79f 78f
9:08pm 22 29 mph 1012.6mb 79f 78f
8:53pm 25 34 mph 1012.5mb 79f 78f
8:38pm 20 27 mph 1012.4mb 79f 78f
8:23pm 20 27 mph 1012.3mb 79f 78f
8:08pm 20 27 mph 1012.3mb 79f 79f
7:53pm 18 22 mph 1012.5mb 79f 78f
7:38pm 18 25 mph 1012.7mb 79f 78f
7:23pm 16 22 mph 1012.8mb 79f 79f
7:08pm 18 22 mph 1013.3mb 79f 79f
6:53pm 16 22 mph 1013.5mb 79f 80f
6:38pm 18 25 mph 1013.9mb 79f 79f
6:23pm 20 27 mph 1014mb 79f 80f
6:08pm 25 34 mph 1013.7mb 79f 80f
5:53pm 22 27 mph 1013.9mb 79f 80f
5:38pm 22 27 mph 1013.5mb 80f 80f
5:23pm 22 27 mph 1013.8mb 80f 80f
5:08pm 20 25 mph 1013.6mb 80f 80f
4:53pm 20 27 mph 1013.7mb 80f 80f
4:38pm 20 27 mph 1013.7mb 80f 79f
4:23pm 20 27 mph 1013.5mb 80f 80f
4:08pm 18 25 mph 1013.6mb 80f 79f
3:53pm 18 27 mph 1014mb 80f 79f
3:38pm 20 27 mph 1014mb 80f 79f
3:23pm 20 25 mph 1014.2mb 80f 79f
3:08pm 20 29 mph 1014.2mb 80f 79f
2:53pm 20 25 mph 1014.4mb 80f 79f
2:38pm 18 22 mph 1014.7mb 80f 79f
2:23pm 16 22 mph 1014.7mb 80f 79f
2:08pm 16 20 mph 1014.7mb 80f 79f
1:53pm 16 20 mph 1014.8mb 80f 79f
1:38pm 16 20 mph 1014.9mb 79f 79f
1:23pm 16 20 mph 1015mb 79f 79f
1:08pm 16 18 mph 1015.3mb 79f 79f
12:53pm 16 18 mph 1015.4mb 79f 79f
12:38pm 16 18 mph 1015.5mb 79f 78f
12:23pm 9 11 mph 1015.8mb 79f 78f
12:08pm 9 13 mph 1015.9mb 79f 78f
11:53am 9 11 mph 1015.9mb 79f 77f
11:38am 9 11 mph 1016mb 79f 77f
11:23am 9 11 mph 1016mb 79f 77f
11:08am 7 11 mph 1016mb 79f 77f
10:53am 9 13 mph 1015.9mb 79f 76f
10:38am 7 11 mph 1015.8mb 79f 76f
10:23am 4 7 mph 1015.7mb 79f 75f
10:08am 2 7 mph 1015.7mb 79f 75f
9:53am 7 9 mph 1015.8mb 79f 74f
9:38am 11 18 mph 1014.4mb 79f 75f
9:23am 11 18 mph 1016mb 79f 76f
9:08am 11 16 mph 1016.2mb 79f 77f
8:53am 9 11 mph 1016mb 79f 77f
8:38am 9 11 mph 1016mb 79f 76f
8:23am 7 11 mph 1015.8mb 79f 76f
8:08am 7 13 mph 1015.8mb 79f 76f
7:53am 9 11 mph 1015.7mb 79f 76f
7:38am 9 11 mph 1015.6mb 79f 75f
7:23am 9 13 mph 1015.4mb 79f 75f
7:08am 11 16 mph 1015.3mb 79f 76f
6:53am 11 16 mph 1015.1mb 79f 76f
6:38am 11 16 mph 1015mb 79f 75f
6:23am 11 16 mph 1015mb 79f 76f
6:08am 13 16 mph 1015mb 79f 76f
5:53am 13 16 mph 1014.9mb 79f 76f
5:38am 13 18 mph 1014.7mb 79f 76f
5:23am 16 20 mph 1014.8mb 79f 76f
5:08am 18 25 mph 1014.7mb 79f 76f
4:53am 18 22 mph 1014.6mb 79f 76f
4:38am 16 20 mph 1014.4mb 79f 75f
4:23am 16 20 mph 1014.5mb 79f 75f
4:08am 13 18 mph 1014.2mb 79f 75f
3:53am 13 18 mph 1014.1mb 79f 75f
3:38am 11 16 mph 1014.1mb 79f 75f
3:23am 9 11 mph 1013.9mb 79f 75f
3:08am 9 13 mph 1013.7mb 79f 75f
2:53am 7 11 mph 1013.5mb 79f 75f
2:38am 7 9 mph 1013.3mb 79f 74f
2:23am 9 11 mph 1013.3mb 78f 74f
2:08am 9 13 mph 1013.4mb 78f 74f
1:53am 13 18 mph 1013.4mb 78f 74f
1:38am 13 18 mph 1013.2mb 78f 74f
1:23am 13 18 mph 1013.3mb 79f 74f
1:08am 11 16 mph 1013.4mb 79f 74f
12:53am 11 13 mph 1013.7mb 79f 75f
12:38am 13 18 mph 1013.4mb 79f 75f
12:08am 18 22 mph 1013.3mb 79f 75f
Thu 07/02 11:53pm 20 27 mph 1013.4mb 79f 75f
11:08pm 27 34 mph 1013.5mb 79f 75f
10:53pm 25 34 mph 1013.7mb 79f 76f
10:38pm 25 31 mph 1014mb 80f 78f
10:23pm 29 36 mph 1013.5mb 80f 79f
10:08pm 27 36 mph 1012.4mb 80f 81f
9:53pm 29 38 mph 1012.5mb 80f 81f
9:38pm 29 36 mph 1011.9mb 80f 81f
9:23pm 29 40 mph 1012.4mb 80f 81f
9:08pm 29 38 mph 1012.4mb 80f 81f
8:53pm 29 40 mph 1012.2mb 80f 81f
8:08pm 22 31 mph 1012.2mb 80f 81f
7:53pm 22 29 mph 1012.1mb 80f 81f
7:38pm 20 27 mph 1012.5mb 80f 81f
7:23pm 22 29 mph 1012.6mb 80f 81f
7:08pm 22 29 mph 1012.5mb 80f 81f
6:53pm 22 27 mph 1012.2mb 80f 81f
6:38pm 20 27 mph 1012.2mb 80f 81f
6:23pm 20 27 mph 1012.1mb 80f 81f
6:08pm 22 29 mph 1012.1mb 80f 81f
5:53pm 22 27 mph 1012.2mb 80f 81f
5:08pm 22 27 mph 1012.6mb 80f 81f
4:53pm 22 31 mph 1012.8mb 80f 81f
4:38pm 22 29 mph 1013mb 80f 81f
4:23pm 22 29 mph 1013.1mb 80f 81f
4:08pm 20 27 mph 1013.7mb 80f 81f
3:53pm 18 25 mph 1013.9mb 80f 82f
3:38pm 20 27 mph 1014mb 80f 82f
3:23pm 22 31 mph 1014mb 80f 81f
3:08pm 20 27 mph 1014.1mb 80f 82f
2:53pm 22 29 mph 1013.9mb 80f 82f
2:38pm 20 27 mph 1014.3mb 80f 82f
2:23pm 20 27 mph 1014.2mb 80f 82f
2:08pm 20 25 mph 1014.2mb 80f 81f
1:53pm 20 25 mph 1014.4mb 80f 82f
1:38pm 20 25 mph 1014.5mb 80f 82f
1:23pm 18 25 mph 1014.6mb 80f 82f
1:08pm 16 22 mph 1014.8mb 80f 82f
12:53pm 16 20 mph 1014.7mb 80f 82f
12:08pm 11 13 mph 1014.9mb 80f 82f
11:53am 9 13 mph 1015.1mb 80f 82f
11:38am 11 16 mph 1015mb 80f 82f
11:23am 11 13 mph 1014.8mb 80f 81f
11:08am 11 16 mph 1014.9mb 80f 81f
10:53am 9 13 mph 1014.9mb 80f 81f
10:38am 9 13 mph 1015mb 80f 80f
10:23am 11 13 mph 1015mb 80f 81f
10:08am 11 16 mph 1015.1mb 80f 80f
9:53am 9 13 mph 1015.2mb 80f 80f
9:38am 11 16 mph 1015.1mb 80f 80f
9:23am 11 16 mph 1015mb 80f 80f
9:08am 13 16 mph 1015.2mb 80f 80f
8:53am 13 16 mph 1015.4mb 80f 81f
8:38am 13 16 mph 1015.3mb 80f 81f
8:23am 11 16 mph 1015.1mb 80f 80f
8:08am 13 18 mph 1015.1mb 80f 80f
7:53am 13 18 mph 1014.9mb 80f 80f
7:38am 13 18 mph 1014.7mb 80f 80f
7:23am 11 16 mph 1014.3mb 80f 80f
7:08am 11 16 mph 1014.2mb 80f 80f
6:53am 13 18 mph 1014.2mb 80f 80f
6:38am 13 18 mph 1014mb 80f 80f
6:23am 13 18 mph 1013.8mb 80f 80f
6:08am 13 18 mph 1013.7mb 80f 80f
5:53am 13 18 mph 1013.7mb 80f 80f
5:38am 13 18 mph 1013.9mb 80f 80f
5:23am 11 18 mph 1013.9mb 80f 80f
5:08am 13 16 mph 1013.9mb 80f 80f
4:53am 11 18 mph 1014mb 80f 80f
4:38am 11 16 mph 1014mb 80f 80f
4:23am 11 16 mph 1013.9mb 80f 80f
4:08am 9 13 mph 1014mb 80f 80f
3:53am 11 16 mph 1014mb 80f 80f
3:38am 13 18 mph 1013.9mb 80f 80f
3:23am 13 18 mph 1014mb 80f 80f
3:08am 16 20 mph 1014.2mb 80f 81f
2:53am 16 20 mph 1014.4mb 80f 81f
2:38am 16 20 mph 1014.5mb 80f 81f
2:23am 16 22 mph 1014.6mb 80f 81f
2:08am 16 20 mph 1014.7mb 80f 80f
1:53am 13 18 mph 1014.8mb 80f 80f
1:38am 13 18 mph 1014.8mb 80f 80f
1:23am 13 20 mph 1014.8mb 80f 80f
1:08am 13 20 mph 1014.9mb 80f 80f
12:53am 13 20 mph 1015.1mb 80f 80f
12:38am 16 20 mph 1015.2mb 80f 80f